sensor_id;sensor_type;location;lat;lon;timestamp;temperature;humidity
8402;DHT22;4238;48.404;9.498;2022-09-11T00:01:24;13.10;99.90
8402;DHT22;4238;48.404;9.498;2022-09-11T00:03:52;13.10;99.90
8402;DHT22;4238;48.404;9.498;2022-09-11T00:06:21;13.00;99.90
8402;DHT22;4238;48.404;9.498;2022-09-11T00:08:51;13.00;99.90
8402;DHT22;4238;48.404;9.498;2022-09-11T00:11:20;13.00;99.90
8402;DHT22;4238;48.404;9.498;2022-09-11T00:13:49;13.00;99.90
8402;DHT22;4238;48.404;9.498;2022-09-11T00:16:21;12.90;99.90
8402;DHT22;4238;48.404;9.498;2022-09-11T00:18:48;12.90;99.90
8402;DHT22;4238;48.404;9.498;2022-09-11T00:21:16;12.90;99.90
8402;DHT22;4238;48.404;9.498;2022-09-11T00:23:43;12.90;99.90
8402;DHT22;4238;48.404;9.498;2022-09-11T00:26:10;12.90;99.90
8402;DHT22;4238;48.404;9.498;2022-09-11T00:28:37;12.90;99.90
8402;DHT22;4238;48.404;9.498;2022-09-11T00:31:06;13.00;99.90
8402;DHT22;4238;48.404;9.498;2022-09-11T00:33:35;13.00;99.90
8402;DHT22;4238;48.404;9.498;2022-09-11T00:36:04;12.90;99.90
8402;DHT22;4238;48.404;9.498;2022-09-11T00:38:34;12.90;99.90
8402;DHT22;4238;48.404;9.498;2022-09-11T00:41:03;12.90;99.90
8402;DHT22;4238;48.404;9.498;2022-09-11T00:43:52;12.90;99.90
8402;DHT22;4238;48.404;9.498;2022-09-11T00:46:21;12.90;99.90
8402;DHT22;4238;48.404;9.498;2022-09-11T00:48:50;12.90;99.90
8402;DHT22;4238;48.404;9.498;2022-09-11T00:51:22;13.00;99.90
8402;DHT22;4238;48.404;9.498;2022-09-11T00:53:52;12.90;99.90
8402;DHT22;4238;48.404;9.498;2022-09-11T00:56:22;13.00;99.90
8402;DHT22;4238;48.404;9.498;2022-09-11T00:58:53;12.90;99.90
8402;DHT22;4238;48.404;9.498;2022-09-11T01:01:21;12.90;99.90
8402;DHT22;4238;48.404;9.498;2022-09-11T01:03:50;12.90;99.90
8402;DHT22;4238;48.404;9.498;2022-09-11T01:06:17;12.90;99.90
8402;DHT22;4238;48.404;9.498;2022-09-11T01:08:45;12.90;99.90
8402;DHT22;4238;48.404;9.498;2022-09-11T01:11:21;12.90;99.90
8402;DHT22;4238;48.404;9.498;2022-09-11T01:13:55;13.00;99.90
8402;DHT22;4238;48.404;9.498;2022-09-11T01:16:29;13.00;99.90
8402;DHT22;4238;48.404;9.498;2022-09-11T01:19:05;13.00;99.90
8402;DHT22;4238;48.404;9.498;2022-09-11T01:21:50;13.00;99.90
8402;DHT22;4238;48.404;9.498;2022-09-11T01:24:43;13.00;99.90
8402;DHT22;4238;48.404;9.498;2022-09-11T01:27:42;13.10;99.90
8402;DHT22;4238;48.404;9.498;2022-09-11T01:30:12;13.10;99.90
8402;DHT22;4238;48.404;9.498;2022-09-11T01:32:52;13.00;99.90
8402;DHT22;4238;48.404;9.498;2022-09-11T01:35:26;13.00;99.90
8402;DHT22;4238;48.404;9.498;2022-09-11T01:38:00;13.00;99.90
8402;DHT22;4238;48.404;9.498;2022-09-11T01:40:32;13.00;99.90
8402;DHT22;4238;48.404;9.498;2022-09-11T01:43:07;13.00;99.90
8402;DHT22;4238;48.404;9.498;2022-09-11T01:45:40;13.00;99.90
8402;DHT22;4238;48.404;9.498;2022-09-11T01:48:09;13.00;99.90
8402;DHT22;4238;48.404;9.498;2022-09-11T01:50:39;12.90;99.90
8402;DHT22;4238;48.404;9.498;2022-09-11T01:53:07;12.90;99.90
8402;DHT22;4238;48.404;9.498;2022-09-11T01:55:40;12.90;99.90
8402;DHT22;4238;48.404;9.498;2022-09-11T01:58:11;12.80;99.90
8402;DHT22;4238;48.404;9.498;2022-09-11T02:00:42;12.80;99.90
8402;DHT22;4238;48.404;9.498;2022-09-11T02:03:12;12.90;99.90
8402;DHT22;4238;48.404;9.498;2022-09-11T02:05:44;12.80;99.90
8402;DHT22;4238;48.404;9.498;2022-09-11T02:08:15;12.80;99.90
8402;DHT22;4238;48.404;9.498;2022-09-11T02:10:48;12.80;99.90
8402;DHT22;4238;48.404;9.498;2022-09-11T02:13:23;12.80;99.90
8402;DHT22;4238;48.404;9.498;2022-09-11T02:15:56;12.80;99.90
8402;DHT22;4238;48.404;9.498;2022-09-11T02:18:31;12.80;99.90
8402;DHT22;4238;48.404;9.498;2022-09-11T02:21:01;12.80;99.90
8402;DHT22;4238;48.404;9.498;2022-09-11T02:23:28;12.80;99.90
8402;DHT22;4238;48.404;9.498;2022-09-11T02:25:55;12.80;99.90
8402;DHT22;4238;48.404;9.498;2022-09-11T02:28:23;12.80;99.90
8402;DHT22;4238;48.404;9.498;2022-09-11T02:30:51;12.80;99.90
8402;DHT22;4238;48.404;9.498;2022-09-11T02:33:27;12.90;99.90
8402;DHT22;4238;48.404;9.498;2022-09-11T02:35:58;12.90;99.90
8402;DHT22;4238;48.404;9.498;2022-09-11T02:38:34;12.80;99.90
8402;DHT22;4238;48.404;9.498;2022-09-11T02:41:08;12.80;99.90
8402;DHT22;4238;48.404;9.498;2022-09-11T02:43:52;12.80;99.90
8402;DHT22;4238;48.404;9.498;2022-09-11T02:46:30;12.80;99.90
8402;DHT22;4238;48.404;9.498;2022-09-11T02:49:06;12.70;99.90
8402;DHT22;4238;48.404;9.498;2022-09-11T02:51:38;12.70;99.90
8402;DHT22;4238;48.404;9.498;2022-09-11T02:54:17;12.70;99.90
8402;DHT22;4238;48.404;9.498;2022-09-11T02:56:49;12.70;99.90
8402;DHT22;4238;48.404;9.498;2022-09-11T02:59:22;12.70;99.90
8402;DHT22;4238;48.404;9.498;2022-09-11T03:01:52;12.80;99.90
8402;DHT22;4238;48.404;9.498;2022-09-11T03:04:21;12.80;99.90
8402;DHT22;4238;48.404;9.498;2022-09-11T03:06:49;12.90;99.90
8402;DHT22;4238;48.404;9.498;2022-09-11T03:09:17;12.90;99.90
8402;DHT22;4238;48.404;9.498;2022-09-11T03:11:45;12.90;99.90
8402;DHT22;4238;48.404;9.498;2022-09-11T03:14:12;12.90;99.90
8402;DHT22;4238;48.404;9.498;2022-09-11T03:16:41;12.90;99.90
8402;DHT22;4238;48.404;9.498;2022-09-11T03:19:08;12.90;99.90
8402;DHT22;4238;48.404;9.498;2022-09-11T03:21:36;12.90;99.90
8402;DHT22;4238;48.404;9.498;2022-09-11T03:24:04;12.90;99.90
8402;DHT22;4238;48.404;9.498;2022-09-11T03:26:32;12.90;99.90
8402;DHT22;4238;48.404;9.498;2022-09-11T03:29:00;12.90;99.90
8402;DHT22;4238;48.404;9.498;2022-09-11T03:31:28;12.90;99.90
8402;DHT22;4238;48.404;9.498;2022-09-11T03:33:56;12.90;99.90
8402;DHT22;4238;48.404;9.498;2022-09-11T03:36:23;12.90;99.90
8402;DHT22;4238;48.404;9.498;2022-09-11T03:38:50;12.90;99.90
8402;DHT22;4238;48.404;9.498;2022-09-11T03:41:17;12.90;99.90
8402;DHT22;4238;48.404;9.498;2022-09-11T03:43:44;12.90;99.90
8402;DHT22;4238;48.404;9.498;2022-09-11T03:46:11;12.90;99.90
8402;DHT22;4238;48.404;9.498;2022-09-11T03:48:38;12.90;99.90
8402;DHT22;4238;48.404;9.498;2022-09-11T03:51:06;12.90;99.90
8402;DHT22;4238;48.404;9.498;2022-09-11T03:53:33;12.90;99.90
8402;DHT22;4238;48.404;9.498;2022-09-11T03:56:00;13.00;99.90
8402;DHT22;4238;48.404;9.498;2022-09-11T03:58:28;13.00;99.90
8402;DHT22;4238;48.404;9.498;2022-09-11T04:00:55;13.00;99.90
8402;DHT22;4238;48.404;9.498;2022-09-11T04:03:22;12.90;99.90
8402;DHT22;4238;48.404;9.498;2022-09-11T04:05:57;12.90;99.90
8402;DHT22;4238;48.404;9.498;2022-09-11T04:08:25;13.00;99.90
8402;DHT22;4238;48.404;9.498;2022-09-11T04:10:56;13.00;99.90
8402;DHT22;4238;48.404;9.498;2022-09-11T04:13:26;13.00;99.90
8402;DHT22;4238;48.404;9.498;2022-09-11T04:15:53;13.00;99.90
8402;DHT22;4238;48.404;9.498;2022-09-11T04:18:23;13.00;99.90
8402;DHT22;4238;48.404;9.498;2022-09-11T04:20:50;12.90;99.90
8402;DHT22;4238;48.404;9.498;2022-09-11T04:23:17;13.00;99.90
8402;DHT22;4238;48.404;9.498;2022-09-11T04:25:45;13.00;99.90
8402;DHT22;4238;48.404;9.498;2022-09-11T04:28:12;13.00;99.90
8402;DHT22;4238;48.404;9.498;2022-09-11T04:30:39;13.00;99.90
8402;DHT22;4238;48.404;9.498;2022-09-11T04:33:07;13.00;99.90
8402;DHT22;4238;48.404;9.498;2022-09-11T04:35:36;13.00;99.90
8402;DHT22;4238;48.404;9.498;2022-09-11T04:38:04;12.90;99.90
8402;DHT22;4238;48.404;9.498;2022-09-11T04:40:31;12.90;99.90
8402;DHT22;4238;48.404;9.498;2022-09-11T04:42:59;12.90;99.90
8402;DHT22;4238;48.404;9.498;2022-09-11T04:45:27;12.90;99.90
8402;DHT22;4238;48.404;9.498;2022-09-11T04:47:58;12.90;99.90
8402;DHT22;4238;48.404;9.498;2022-09-11T04:50:25;12.90;99.90
8402;DHT22;4238;48.404;9.498;2022-09-11T04:52:55;12.90;99.90
8402;DHT22;4238;48.404;9.498;2022-09-11T04:55:23;13.00;99.90
8402;DHT22;4238;48.404;9.498;2022-09-11T04:57:50;13.00;99.90
8402;DHT22;4238;48.404;9.498;2022-09-11T05:00:19;13.00;99.90
8402;DHT22;4238;48.404;9.498;2022-09-11T05:02:46;13.00;99.90
8402;DHT22;4238;48.404;9.498;2022-09-11T05:05:13;13.00;99.90
8402;DHT22;4238;48.404;9.498;2022-09-11T05:07:40;13.10;99.90
8402;DHT22;4238;48.404;9.498;2022-09-11T05:10:08;13.10;99.90
8402;DHT22;4238;48.404;9.498;2022-09-11T05:12:36;13.10;99.90
8402;DHT22;4238;48.404;9.498;2022-09-11T05:15:04;13.10;99.90
8402;DHT22;4238;48.404;9.498;2022-09-11T05:17:32;13.10;99.90
8402;DHT22;4238;48.404;9.498;2022-09-11T05:20:00;13.00;99.90
8402;DHT22;4238;48.404;9.498;2022-09-11T05:22:27;13.10;99.90
8402;DHT22;4238;48.404;9.498;2022-09-11T05:24:54;13.10;99.90
8402;DHT22;4238;48.404;9.498;2022-09-11T05:27:21;13.10;99.90
8402;DHT22;4238;48.404;9.498;2022-09-11T05:29:48;13.10;99.90
8402;DHT22;4238;48.404;9.498;2022-09-11T05:32:15;13.10;99.90
8402;DHT22;4238;48.404;9.498;2022-09-11T05:34:43;13.10;99.90
8402;DHT22;4238;48.404;9.498;2022-09-11T05:37:10;13.10;99.90
8402;DHT22;4238;48.404;9.498;2022-09-11T05:39:37;13.10;99.90
8402;DHT22;4238;48.404;9.498;2022-09-11T05:42:04;13.10;99.90
8402;DHT22;4238;48.404;9.498;2022-09-11T05:44:31;13.10;99.90
8402;DHT22;4238;48.404;9.498;2022-09-11T05:46:59;13.20;99.90
8402;DHT22;4238;48.404;9.498;2022-09-11T05:49:26;13.10;99.90
8402;DHT22;4238;48.404;9.498;2022-09-11T05:51:55;13.20;99.90
8402;DHT22;4238;48.404;9.498;2022-09-11T05:54:21;13.20;99.90
8402;DHT22;4238;48.404;9.498;2022-09-11T05:56:48;13.20;99.90
8402;DHT22;4238;48.404;9.498;2022-09-11T05:59:15;13.30;99.90
8402;DHT22;4238;48.404;9.498;2022-09-11T06:01:42;13.30;99.90
8402;DHT22;4238;48.404;9.498;2022-09-11T06:04:10;13.30;99.90
8402;DHT22;4238;48.404;9.498;2022-09-11T06:06:37;13.30;99.90
8402;DHT22;4238;48.404;9.498;2022-09-11T06:09:05;13.30;99.90
8402;DHT22;4238;48.404;9.498;2022-09-11T06:11:33;13.30;99.90
8402;DHT22;4238;48.404;9.498;2022-09-11T06:13:59;13.30;99.90
8402;DHT22;4238;48.404;9.498;2022-09-11T06:16:27;13.30;99.90
8402;DHT22;4238;48.404;9.498;2022-09-11T06:18:56;13.30;99.90
8402;DHT22;4238;48.404;9.498;2022-09-11T06:21:24;13.30;99.90
8402;DHT22;4238;48.404;9.498;2022-09-11T06:23:52;13.20;99.90
8402;DHT22;4238;48.404;9.498;2022-09-11T06:26:22;13.30;99.90
8402;DHT22;4238;48.404;9.498;2022-09-11T06:28:49;13.30;99.90
8402;DHT22;4238;48.404;9.498;2022-09-11T06:31:18;13.30;99.90
8402;DHT22;4238;48.404;9.498;2022-09-11T06:33:46;13.30;99.90
8402;DHT22;4238;48.404;9.498;2022-09-11T06:36:14;13.30;99.90
8402;DHT22;4238;48.404;9.498;2022-09-11T06:38:42;13.30;99.90
8402;DHT22;4238;48.404;9.498;2022-09-11T06:41:11;13.30;99.90
8402;DHT22;4238;48.404;9.498;2022-09-11T06:43:41;13.40;99.90
8402;DHT22;4238;48.404;9.498;2022-09-11T06:46:09;13.40;99.90
8402;DHT22;4238;48.404;9.498;2022-09-11T06:48:37;13.50;99.90
8402;DHT22;4238;48.404;9.498;2022-09-11T06:51:05;13.60;99.90
8402;DHT22;4238;48.404;9.498;2022-09-11T06:53:33;13.60;99.90
8402;DHT22;4238;48.404;9.498;2022-09-11T06:56:00;13.70;99.90
8402;DHT22;4238;48.404;9.498;2022-09-11T06:58:28;13.70;99.90
8402;DHT22;4238;48.404;9.498;2022-09-11T07:01:01;13.70;99.90
8402;DHT22;4238;48.404;9.498;2022-09-11T07:03:28;13.70;99.90
8402;DHT22;4238;48.404;9.498;2022-09-11T07:05:55;13.70;99.90
8402;DHT22;4238;48.404;9.498;2022-09-11T07:08:21;13.70;99.90
8402;DHT22;4238;48.404;9.498;2022-09-11T07:10:48;13.70;99.90
8402;DHT22;4238;48.404;9.498;2022-09-11T07:13:15;13.60;99.90
8402;DHT22;4238;48.404;9.498;2022-09-11T07:15:42;13.70;99.90
8402;DHT22;4238;48.404;9.498;2022-09-11T07:18:10;13.60;99.90
8402;DHT22;4238;48.404;9.498;2022-09-11T07:20:38;13.60;99.90
8402;DHT22;4238;48.404;9.498;2022-09-11T07:23:06;13.60;99.90
8402;DHT22;4238;48.404;9.498;2022-09-11T07:25:34;13.60;99.90
8402;DHT22;4238;48.404;9.498;2022-09-11T07:28:03;13.60;99.90
8402;DHT22;4238;48.404;9.498;2022-09-11T07:30:30;13.70;99.90
8402;DHT22;4238;48.404;9.498;2022-09-11T07:32:58;13.70;99.90
8402;DHT22;4238;48.404;9.498;2022-09-11T07:35:26;13.80;99.90
8402;DHT22;4238;48.404;9.498;2022-09-11T07:37:53;13.80;99.90
8402;DHT22;4238;48.404;9.498;2022-09-11T07:40:20;14.00;99.90
8402;DHT22;4238;48.404;9.498;2022-09-11T07:42:46;14.00;99.90
8402;DHT22;4238;48.404;9.498;2022-09-11T07:45:14;14.00;99.90
8402;DHT22;4238;48.404;9.498;2022-09-11T07:47:41;14.10;99.90
8402;DHT22;4238;48.404;9.498;2022-09-11T07:50:08;14.10;99.90
8402;DHT22;4238;48.404;9.498;2022-09-11T07:52:37;14.20;99.90
8402;DHT22;4238;48.404;9.498;2022-09-11T07:55:05;14.20;99.90
8402;DHT22;4238;48.404;9.498;2022-09-11T07:57:32;14.20;99.90
8402;DHT22;4238;48.404;9.498;2022-09-11T07:59:59;14.30;99.90
8402;DHT22;4238;48.404;9.498;2022-09-11T08:02:26;14.40;99.90
8402;DHT22;4238;48.404;9.498;2022-09-11T08:04:53;14.40;99.90
8402;DHT22;4238;48.404;9.498;2022-09-11T08:07:19;14.40;99.90
8402;DHT22;4238;48.404;9.498;2022-09-11T08:09:49;14.50;99.90
8402;DHT22;4238;48.404;9.498;2022-09-11T08:12:16;14.50;99.90
8402;DHT22;4238;48.404;9.498;2022-09-11T08:14:44;14.50;99.90
8402;DHT22;4238;48.404;9.498;2022-09-11T08:17:11;14.50;99.90
8402;DHT22;4238;48.404;9.498;2022-09-11T08:19:38;14.50;99.90
8402;DHT22;4238;48.404;9.498;2022-09-11T08:22:05;14.50;99.90
8402;DHT22;4238;48.404;9.498;2022-09-11T08:24:33;14.60;99.90
8402;DHT22;4238;48.404;9.498;2022-09-11T08:27:01;14.60;99.90
8402;DHT22;4238;48.404;9.498;2022-09-11T08:29:30;14.70;99.90
8402;DHT22;4238;48.404;9.498;2022-09-11T08:31:57;14.80;99.90
8402;DHT22;4238;48.404;9.498;2022-09-11T08:34:24;14.90;99.90
8402;DHT22;4238;48.404;9.498;2022-09-11T08:36:52;15.00;99.90
8402;DHT22;4238;48.404;9.498;2022-09-11T08:39:18;15.40;99.90
8402;DHT22;4238;48.404;9.498;2022-09-11T08:41:48;15.60;99.90
8402;DHT22;4238;48.404;9.498;2022-09-11T08:44:22;15.70;99.90
8402;DHT22;4238;48.404;9.498;2022-09-11T08:46:53;15.70;99.90
8402;DHT22;4238;48.404;9.498;2022-09-11T08:49:25;15.70;99.90
8402;DHT22;4238;48.404;9.498;2022-09-11T08:51:55;15.80;99.90
8402;DHT22;4238;48.404;9.498;2022-09-11T08:54:25;16.00;99.90
8402;DHT22;4238;48.404;9.498;2022-09-11T08:57:06;16.10;99.90
8402;DHT22;4238;48.404;9.498;2022-09-11T08:59:54;16.20;94.70
8402;DHT22;4238;48.404;9.498;2022-09-11T09:02:48;16.20;83.30
8402;DHT22;4238;48.404;9.498;2022-09-11T09:05:27;16.40;90.00
8402;DHT22;4238;48.404;9.498;2022-09-11T09:08:05;16.60;91.10
8402;DHT22;4238;48.404;9.498;2022-09-11T09:10:48;16.70;89.60
8402;DHT22;4238;48.404;9.498;2022-09-11T09:13:35;16.60;75.50
8402;DHT22;4238;48.404;9.498;2022-09-11T09:16:23;16.60;66.30
8402;DHT22;4238;48.404;9.498;2022-09-11T09:18:58;16.60;91.60
8402;DHT22;4238;48.404;9.498;2022-09-11T09:21:32;16.60;74.60
8402;DHT22;4238;48.404;9.498;2022-09-11T09:24:03;16.50;75.40
8402;DHT22;4238;48.404;9.498;2022-09-11T09:26:35;16.50;84.90
8402;DHT22;4238;48.404;9.498;2022-09-11T09:29:08;16.60;87.90
8402;DHT22;4238;48.404;9.498;2022-09-11T09:31:37;16.50;67.30
8402;DHT22;4238;48.404;9.498;2022-09-11T09:34:11;16.40;64.10
8402;DHT22;4238;48.404;9.498;2022-09-11T09:36:46;16.50;57.40
8402;DHT22;4238;48.404;9.498;2022-09-11T09:39:16;16.50;69.80
8402;DHT22;4238;48.404;9.498;2022-09-11T09:42:10;16.60;68.50
8402;DHT22;4238;48.404;9.498;2022-09-11T09:44:49;16.90;49.80
8402;DHT22;4238;48.404;9.498;2022-09-11T09:47:20;17.30;22.40
8402;DHT22;4238;48.404;9.498;2022-09-11T09:49:47;17.20;22.50
8402;DHT22;4238;48.404;9.498;2022-09-11T09:52:18;17.20;44.60
8402;DHT22;4238;48.404;9.498;2022-09-11T09:54:52;17.00;28.70
8402;DHT22;4238;48.404;9.498;2022-09-11T09:57:23;16.90;41.40
8402;DHT22;4238;48.404;9.498;2022-09-11T09:59:54;17.00;45.30
8402;DHT22;4238;48.404;9.498;2022-09-11T10:02:38;17.10;23.80
8402;DHT22;4238;48.404;9.498;2022-09-11T10:05:15;17.50;35.60
8402;DHT22;4238;48.404;9.498;2022-09-11T10:07:47;18.20;5.10
8402;DHT22;4238;48.404;9.498;2022-09-11T10:10:26;18.50;1.00
8402;DHT22;4238;48.404;9.498;2022-09-11T10:12:56;19.10;1.00
8402;DHT22;4238;48.404;9.498;2022-09-11T10:15:24;19.00;1.00
8402;DHT22;4238;48.404;9.498;2022-09-11T10:17:58;19.00;1.00
8402;DHT22;4238;48.404;9.498;2022-09-11T10:20:45;19.70;1.00
8402;DHT22;4238;48.404;9.498;2022-09-11T10:23:22;19.90;1.00
8402;DHT22;4238;48.404;9.498;2022-09-11T10:25:50;20.30;99.90
8402;DHT22;4238;48.404;9.498;2022-09-11T10:28:23;20.20;99.90
8402;DHT22;4238;48.404;9.498;2022-09-11T10:30:58;20.00;99.90
8402;DHT22;4238;48.404;9.498;2022-09-11T10:33:30;19.70;1.00
8402;DHT22;4238;48.404;9.498;2022-09-11T10:36:00;19.40;1.00
8402;DHT22;4238;48.404;9.498;2022-09-11T10:38:30;19.00;1.00
8402;DHT22;4238;48.404;9.498;2022-09-11T10:41:04;18.90;1.00
8402;DHT22;4238;48.404;9.498;2022-09-11T10:43:41;18.70;1.00
8402;DHT22;4238;48.404;9.498;2022-09-11T10:46:31;18.50;1.00
8402;DHT22;4238;48.404;9.498;2022-09-11T10:49:17;18.50;1.00
8402;DHT22;4238;48.404;9.498;2022-09-11T10:51:59;18.60;1.00
8402;DHT22;4238;48.404;9.498;2022-09-11T10:54:50;18.80;1.00
8402;DHT22;4238;48.404;9.498;2022-09-11T10:57:22;18.70;1.00
8402;DHT22;4238;48.404;9.498;2022-09-11T11:00:00;18.50;1.00
8402;DHT22;4238;48.404;9.498;2022-09-11T11:02:30;18.30;1.00
8402;DHT22;4238;48.404;9.498;2022-09-11T11:05:03;18.30;1.00
8402;DHT22;4238;48.404;9.498;2022-09-11T11:10:36;18.00;1.00
8402;DHT22;4238;48.404;9.498;2022-09-11T11:13:11;17.90;1.00
8402;DHT22;4238;48.404;9.498;2022-09-11T11:15:53;17.90;1.00
8402;DHT22;4238;48.404;9.498;2022-09-11T11:18:37;17.90;1.00
8402;DHT22;4238;48.404;9.498;2022-09-11T11:21:19;17.70;1.00
8402;DHT22;4238;48.404;9.498;2022-09-11T11:24:00;17.70;1.00
8402;DHT22;4238;48.404;9.498;2022-09-11T11:26:41;17.80;1.00
8402;DHT22;4238;48.404;9.498;2022-09-11T11:33:03;18.40;1.00
8402;DHT22;4238;48.404;9.498;2022-09-11T11:35:36;19.00;1.00
8402;DHT22;4238;48.404;9.498;2022-09-11T11:38:15;19.30;1.00
8402;DHT22;4238;48.404;9.498;2022-09-11T11:40:46;19.30;1.00
8402;DHT22;4238;48.404;9.498;2022-09-11T11:43:15;19.70;1.00
8402;DHT22;4238;48.404;9.498;2022-09-11T11:45:45;20.50;99.90
8402;DHT22;4238;48.404;9.498;2022-09-11T11:48:17;21.10;99.90
8402;DHT22;4238;48.404;9.498;2022-09-11T11:50:48;21.40;18.30
8402;DHT22;4238;48.404;9.498;2022-09-11T11:53:22;21.10;1.00
8402;DHT22;4238;48.404;9.498;2022-09-11T11:55:59;20.60;48.70
8402;DHT22;4238;48.404;9.498;2022-09-11T11:58:38;20.40;1.00
8402;DHT22;4238;48.404;9.498;2022-09-11T12:01:11;20.20;1.00
8402;DHT22;4238;48.404;9.498;2022-09-11T12:03:46;20.00;1.00
8402;DHT22;4238;48.404;9.498;2022-09-11T12:06:13;19.70;1.00
8402;DHT22;4238;48.404;9.498;2022-09-11T12:08:43;19.60;99.90
8402;DHT22;4238;48.404;9.498;2022-09-11T12:11:12;19.50;99.90
8402;DHT22;4238;48.404;9.498;2022-09-11T12:13:42;19.30;99.90
8402;DHT22;4238;48.404;9.498;2022-09-11T12:16:14;19.20;99.90
8402;DHT22;4238;48.404;9.498;2022-09-11T12:19:01;19.10;99.90
8402;DHT22;4238;48.404;9.498;2022-09-11T12:24:54;19.30;1.00
8402;DHT22;4238;48.404;9.498;2022-09-11T12:27:53;19.70;1.00
8402;DHT22;4238;48.404;9.498;2022-09-11T12:31:03;20.10;13.90
8402;DHT22;4238;48.404;9.498;2022-09-11T12:33:53;20.50;1.00
8402;DHT22;4238;48.404;9.498;2022-09-11T12:36:36;20.50;99.90
8402;DHT22;4238;48.404;9.498;2022-09-11T12:39:28;20.50;93.40
8402;DHT22;4238;48.404;9.498;2022-09-11T12:44:57;20.30;1.00
8402;DHT22;4238;48.404;9.498;2022-09-11T12:47:26;20.10;1.00
8402;DHT22;4238;48.404;9.498;2022-09-11T12:50:01;19.90;1.00
8402;DHT22;4238;48.404;9.498;2022-09-11T12:52:37;20.00;99.90
8402;DHT22;4238;48.404;9.498;2022-09-11T12:55:27;20.60;99.90
8402;DHT22;4238;48.404;9.498;2022-09-11T12:57:56;20.70;1.00
8402;DHT22;4238;48.404;9.498;2022-09-11T13:00:33;20.40;1.00
8402;DHT22;4238;48.404;9.498;2022-09-11T13:03:02;20.10;1.00
8402;DHT22;4238;48.404;9.498;2022-09-11T13:05:32;20.10;99.90
8402;DHT22;4238;48.404;9.498;2022-09-11T13:08:04;20.40;99.90
8402;DHT22;4238;48.404;9.498;2022-09-11T13:10:35;20.20;1.00
8402;DHT22;4238;48.404;9.498;2022-09-11T13:13:03;20.20;1.00
8402;DHT22;4238;48.404;9.498;2022-09-11T13:15:37;20.30;1.00
8402;DHT22;4238;48.404;9.498;2022-09-11T13:18:24;20.00;1.00
8402;DHT22;4238;48.404;9.498;2022-09-11T13:21:11;19.90;99.90
8402;DHT22;4238;48.404;9.498;2022-09-11T13:23:38;19.80;1.00
8402;DHT22;4238;48.404;9.498;2022-09-11T13:26:07;19.70;99.90
8402;DHT22;4238;48.404;9.498;2022-09-11T13:28:43;20.00;1.00
8402;DHT22;4238;48.404;9.498;2022-09-11T13:31:16;20.30;1.00
8402;DHT22;4238;48.404;9.498;2022-09-11T13:33:46;20.30;99.90
8402;DHT22;4238;48.404;9.498;2022-09-11T13:36:15;20.30;99.90
8402;DHT22;4238;48.404;9.498;2022-09-11T13:38:48;20.40;99.90
8402;DHT22;4238;48.404;9.498;2022-09-11T13:41:22;20.80;1.00
8402;DHT22;4238;48.404;9.498;2022-09-11T13:43:51;21.20;99.90
8402;DHT22;4238;48.404;9.498;2022-09-11T13:46:23;21.30;99.90
8402;DHT22;4238;48.404;9.498;2022-09-11T13:48:56;21.40;99.90
8402;DHT22;4238;48.404;9.498;2022-09-11T13:51:26;21.80;1.00
8402;DHT22;4238;48.404;9.498;2022-09-11T13:54:05;22.00;1.00
8402;DHT22;4238;48.404;9.498;2022-09-11T13:56:42;22.00;99.90
8402;DHT22;4238;48.404;9.498;2022-09-11T13:59:37;22.10;1.00
8402;DHT22;4238;48.404;9.498;2022-09-11T14:05:14;22.20;1.00
8402;DHT22;4238;48.404;9.498;2022-09-11T14:07:46;21.80;10.60
8402;DHT22;4238;48.404;9.498;2022-09-11T14:10:22;21.90;99.90
8402;DHT22;4238;48.404;9.498;2022-09-11T14:12:53;22.00;99.90
8402;DHT22;4238;48.404;9.498;2022-09-11T14:15:29;22.20;99.90
8402;DHT22;4238;48.404;9.498;2022-09-11T14:18:01;22.20;50.20
8402;DHT22;4238;48.404;9.498;2022-09-11T14:20:29;22.20;1.00
8402;DHT22;4238;48.404;9.498;2022-09-11T14:23:00;22.20;99.90
8402;DHT22;4238;48.404;9.498;2022-09-11T14:25:29;22.00;1.00
8402;DHT22;4238;48.404;9.498;2022-09-11T14:27:57;21.90;1.00
8402;DHT22;4238;48.404;9.498;2022-09-11T14:30:30;21.70;1.00
8402;DHT22;4238;48.404;9.498;2022-09-11T14:33:22;21.50;1.00
8402;DHT22;4238;48.404;9.498;2022-09-11T14:35:51;21.40;1.00
8402;DHT22;4238;48.404;9.498;2022-09-11T14:38:20;21.50;1.00
8402;DHT22;4238;48.404;9.498;2022-09-11T14:40:53;21.30;1.00
8402;DHT22;4238;48.404;9.498;2022-09-11T14:43:24;21.00;99.90
8402;DHT22;4238;48.404;9.498;2022-09-11T14:45:52;20.70;37.30
8402;DHT22;4238;48.404;9.498;2022-09-11T14:48:21;20.50;99.90
8402;DHT22;4238;48.404;9.498;2022-09-11T14:50:48;20.30;99.90
8402;DHT22;4238;48.404;9.498;2022-09-11T14:53:17;20.00;1.00
8402;DHT22;4238;48.404;9.498;2022-09-11T14:55:47;19.70;2.40
8402;DHT22;4238;48.404;9.498;2022-09-11T14:58:16;19.50;99.90
8402;DHT22;4238;48.404;9.498;2022-09-11T15:00:43;19.30;99.90
8402;DHT22;4238;48.404;9.498;2022-09-11T15:03:10;19.30;1.00
8402;DHT22;4238;48.404;9.498;2022-09-11T15:05:38;18.90;1.00
8402;DHT22;4238;48.404;9.498;2022-09-11T15:08:05;18.50;1.00
8402;DHT22;4238;48.404;9.498;2022-09-11T15:10:32;18.50;99.90
8402;DHT22;4238;48.404;9.498;2022-09-11T15:12:58;18.80;99.90
8402;DHT22;4238;48.404;9.498;2022-09-11T15:15:27;19.10;99.90
8402;DHT22;4238;48.404;9.498;2022-09-11T15:17:56;19.40;99.90
8402;DHT22;4238;48.404;9.498;2022-09-11T15:20:23;19.50;1.00
8402;DHT22;4238;48.404;9.498;2022-09-11T15:22:53;19.40;1.00
8402;DHT22;4238;48.404;9.498;2022-09-11T15:25:21;19.50;99.90
8402;DHT22;4238;48.404;9.498;2022-09-11T15:27:49;19.60;1.00
8402;DHT22;4238;48.404;9.498;2022-09-11T15:30:17;19.70;99.90
8402;DHT22;4238;48.404;9.498;2022-09-11T15:32:44;19.90;1.00
8402;DHT22;4238;48.404;9.498;2022-09-11T15:35:12;19.60;99.90
8402;DHT22;4238;48.404;9.498;2022-09-11T15:37:39;19.70;1.00
8402;DHT22;4238;48.404;9.498;2022-09-11T15:40:09;19.80;99.90
8402;DHT22;4238;48.404;9.498;2022-09-11T15:42:35;19.60;99.90
8402;DHT22;4238;48.404;9.498;2022-09-11T15:45:03;19.30;1.00
8402;DHT22;4238;48.404;9.498;2022-09-11T15:47:30;19.50;1.00
8402;DHT22;4238;48.404;9.498;2022-09-11T15:49:57;19.60;99.90
8402;DHT22;4238;48.404;9.498;2022-09-11T15:52:24;19.70;1.00
8402;DHT22;4238;48.404;9.498;2022-09-11T15:54:54;19.90;1.00
8402;DHT22;4238;48.404;9.498;2022-09-11T15:57:22;19.90;99.90
8402;DHT22;4238;48.404;9.498;2022-09-11T15:59:50;19.90;99.90
8402;DHT22;4238;48.404;9.498;2022-09-11T16:02:17;19.90;10.90
8402;DHT22;4238;48.404;9.498;2022-09-11T16:04:46;19.90;1.00
8402;DHT22;4238;48.404;9.498;2022-09-11T16:07:13;19.80;99.90
8402;DHT22;4238;48.404;9.498;2022-09-11T16:09:40;19.80;1.00
8402;DHT22;4238;48.404;9.498;2022-09-11T16:12:07;19.80;1.00
8402;DHT22;4238;48.404;9.498;2022-09-11T16:14:36;19.80;1.00
8402;DHT22;4238;48.404;9.498;2022-09-11T16:17:04;19.70;99.90
8402;DHT22;4238;48.404;9.498;2022-09-11T16:19:31;19.60;1.00
8402;DHT22;4238;48.404;9.498;2022-09-11T16:22:00;19.60;1.00
8402;DHT22;4238;48.404;9.498;2022-09-11T16:24:28;19.60;1.00
8402;DHT22;4238;48.404;9.498;2022-09-11T16:26:56;19.50;1.00
8402;DHT22;4238;48.404;9.498;2022-09-11T16:29:25;19.40;1.00
8402;DHT22;4238;48.404;9.498;2022-09-11T16:31:54;19.40;1.00
8402;DHT22;4238;48.404;9.498;2022-09-11T16:34:21;19.50;1.00
8402;DHT22;4238;48.404;9.498;2022-09-11T16:36:48;19.40;99.90
8402;DHT22;4238;48.404;9.498;2022-09-11T16:39:17;19.40;99.90
8402;DHT22;4238;48.404;9.498;2022-09-11T16:41:45;19.30;1.00
8402;DHT22;4238;48.404;9.498;2022-09-11T16:44:13;19.30;99.90
8402;DHT22;4238;48.404;9.498;2022-09-11T16:46:41;19.30;99.90